Hakuryu Maru — JL5950 — position and weather

sailwx.info

Track history (hours):
 
Tides and Currents Weather Stations Pressure Air Temp Water Temp Dewpoint Dewpoint Depression Visibility Wind Speed Wind Dir Waves Ship Positions

Hakuryu Maru

Last reported at 2017-Nov-19 18:37 UTC. Time now 2017-Nov-19 21:52 UTC.
Position N 34°08' E 134°45'.

Length 115 m; draft 5.1 m.

Type: Cargo ship. MMSI: 431500789.

Date/timePositionNaut miles runAvg speedWind from/ knotsBaromVisibWave heightAir tempDewpointWater temp
2017-Nov-19 18:37N 34°08' E 134°45'214.2
2017-Nov-19 18:30N 34°07' E 134°47'914.1
2017-Nov-19 17:51N 33°59' E 134°54'614.1
2017-Nov-19 17:27N 33°55' E 134°58'  
2017-Nov-16 19:31N 34°08' E 134°45'014.9
2017-Nov-16 19:30N 34°08' E 134°45'  
2017-Nov-09 23:28N 34°14' E 134°39'915.6
2017-Nov-09 22:54N 34°07' E 134°46'615.5
2017-Nov-09 22:29N 34°02' E 134°52'815.3
2017-Nov-09 21:59N 33°56' E 134°58'  
Track history (hours):
 
Tides and Currents Weather Stations Pressure Air Temp Water Temp Dewpoint Dewpoint Depression Visibility Wind Speed Wind Dir Waves Ship Positions

Hakuryu Maru

Last reported at 2017-Nov-19 18:37 UTC. Time now 2017-Nov-19 21:52 UTC.
Position N 34°08' E 134°45'.

Length 115 m; draft 5.1 m.

Type: Cargo ship. MMSI: 431500789.

Date/timePositionNaut miles runAvg speedWind from/ knotsBaromVisibWave heightAir tempDewpointWater temp
2017-Nov-19 18:37N 34°08' E 134°45'214.2
2017-Nov-19 18:30N 34°07' E 134°47'914.1
2017-Nov-19 17:51N 33°59' E 134°54'614.1
2017-Nov-19 17:27N 33°55' E 134°58'  
2017-Nov-16 19:31N 34°08' E 134°45'014.9
2017-Nov-16 19:30N 34°08' E 134°45'  
2017-Nov-09 23:28N 34°14' E 134°39'915.6
2017-Nov-09 22:54N 34°07' E 134°46'615.5
2017-Nov-09 22:29N 34°02' E 134°52'815.3
2017-Nov-09 21:59N 33°56' E 134°58'  

Dump ship's entire track history